sensor_id;sensor_type;location;lat;lon;timestamp;P1;durP1;ratioP1;P2;durP2;ratioP2
66012;SDS011;52783;50.502;8.190;2023-04-07T00:00:49;11.77;;;8.35;;
66012;SDS011;52783;50.502;8.190;2023-04-07T00:03:14;11.75;;;7.57;;
66012;SDS011;52783;50.502;8.190;2023-04-07T00:05:40;13.20;;;8.30;;
66012;SDS011;52783;50.502;8.190;2023-04-07T00:08:05;13.73;;;8.30;;
66012;SDS011;52783;50.502;8.190;2023-04-07T00:10:31;12.07;;;7.85;;
66012;SDS011;52783;50.502;8.190;2023-04-07T00:12:57;11.57;;;8.00;;
66012;SDS011;52783;50.502;8.190;2023-04-07T00:15:22;14.25;;;8.35;;
66012;SDS011;52783;50.502;8.190;2023-04-07T00:17:48;13.13;;;8.27;;
66012;SDS011;52783;50.502;8.190;2023-04-07T00:20:14;14.90;;;8.40;;
66012;SDS011;52783;50.502;8.190;2023-04-07T00:22:39;14.25;;;7.90;;
66012;SDS011;52783;50.502;8.190;2023-04-07T00:25:05;14.57;;;8.60;;
66012;SDS011;52783;50.502;8.190;2023-04-07T00:27:31;11.27;;;8.27;;
66012;SDS011;52783;50.502;8.190;2023-04-07T00:29:56;13.60;;;8.43;;
66012;SDS011;52783;50.502;8.190;2023-04-07T00:32:22;15.68;;;8.57;;
66012;SDS011;52783;50.502;8.190;2023-04-07T00:34:47;12.38;;;8.35;;
66012;SDS011;52783;50.502;8.190;2023-04-07T00:37:13;16.23;;;8.55;;
66012;SDS011;52783;50.502;8.190;2023-04-07T00:39:38;15.90;;;8.98;;
66012;SDS011;52783;50.502;8.190;2023-04-07T00:42:04;13.55;;;8.98;;
66012;SDS011;52783;50.502;8.190;2023-04-07T00:44:30;14.70;;;9.77;;
66012;SDS011;52783;50.502;8.190;2023-04-07T00:46:56;15.38;;;8.95;;
66012;SDS011;52783;50.502;8.190;2023-04-07T00:49:22;14.07;;;9.00;;
66012;SDS011;52783;50.502;8.190;2023-04-07T00:51:48;15.95;;;8.88;;
66012;SDS011;52783;50.502;8.190;2023-04-07T00:54:13;12.93;;;9.32;;
66012;SDS011;52783;50.502;8.190;2023-04-07T00:56:39;14.35;;;8.82;;
66012;SDS011;52783;50.502;8.190;2023-04-07T00:59:05;14.68;;;9.50;;
66012;SDS011;52783;50.502;8.190;2023-04-07T01:01:39;11.98;;;8.63;;
66012;SDS011;52783;50.502;8.190;2023-04-07T01:07:10;14.52;;;10.00;;
66012;SDS011;52783;50.502;8.190;2023-04-07T01:09:45;15.43;;;9.02;;
66012;SDS011;52783;50.502;8.190;2023-04-07T01:15:27;14.55;;;9.52;;
66012;SDS011;52783;50.502;8.190;2023-04-07T01:18:05;13.52;;;9.18;;
66012;SDS011;52783;50.502;8.190;2023-04-07T01:20:36;17.10;;;10.20;;
66012;SDS011;52783;50.502;8.190;2023-04-07T01:23:04;14.63;;;9.98;;
66012;SDS011;52783;50.502;8.190;2023-04-07T01:30:28;17.15;;;10.77;;
66012;SDS011;52783;50.502;8.190;2023-04-07T01:32:59;16.20;;;10.77;;
66012;SDS011;52783;50.502;8.190;2023-04-07T01:35:29;16.15;;;10.13;;
66012;SDS011;52783;50.502;8.190;2023-04-07T01:37:58;14.95;;;9.48;;
66012;SDS011;52783;50.502;8.190;2023-04-07T01:40:25;16.52;;;10.30;;
66012;SDS011;52783;50.502;8.190;2023-04-07T01:42:51;19.52;;;10.32;;
66012;SDS011;52783;50.502;8.190;2023-04-07T01:45:18;19.20;;;10.85;;
66012;SDS011;52783;50.502;8.190;2023-04-07T01:47:46;18.52;;;11.63;;
66012;SDS011;52783;50.502;8.190;2023-04-07T01:50:13;16.60;;;10.40;;
66012;SDS011;52783;50.502;8.190;2023-04-07T01:52:39;17.52;;;11.32;;
66012;SDS011;52783;50.502;8.190;2023-04-07T01:55:05;18.13;;;11.82;;
66012;SDS011;52783;50.502;8.190;2023-04-07T01:57:32;20.75;;;12.00;;
66012;SDS011;52783;50.502;8.190;2023-04-07T01:59:57;18.05;;;11.63;;
66012;SDS011;52783;50.502;8.190;2023-04-07T02:02:23;19.35;;;12.55;;
66012;SDS011;52783;50.502;8.190;2023-04-07T02:04:51;17.75;;;11.25;;
66012;SDS011;52783;50.502;8.190;2023-04-07T02:07:23;20.52;;;12.48;;
66012;SDS011;52783;50.502;8.190;2023-04-07T02:10:02;19.50;;;12.45;;
66012;SDS011;52783;50.502;8.190;2023-04-07T02:12:32;20.25;;;11.60;;
66012;SDS011;52783;50.502;8.190;2023-04-07T02:15:01;17.98;;;11.93;;
66012;SDS011;52783;50.502;8.190;2023-04-07T02:17:29;19.23;;;13.02;;
66012;SDS011;52783;50.502;8.190;2023-04-07T02:19:57;21.50;;;12.85;;
66012;SDS011;52783;50.502;8.190;2023-04-07T02:22:24;21.83;;;13.82;;
66012;SDS011;52783;50.502;8.190;2023-04-07T02:24:50;24.00;;;14.02;;
66012;SDS011;52783;50.502;8.190;2023-04-07T02:27:16;21.70;;;14.23;;
66012;SDS011;52783;50.502;8.190;2023-04-07T02:29:41;24.90;;;13.50;;
66012;SDS011;52783;50.502;8.190;2023-04-07T02:32:07;23.58;;;13.95;;
66012;SDS011;52783;50.502;8.190;2023-04-07T02:34:32;24.35;;;13.45;;
66012;SDS011;52783;50.502;8.190;2023-04-07T02:36:58;23.63;;;14.65;;
66012;SDS011;52783;50.502;8.190;2023-04-07T02:39:23;25.23;;;15.43;;
66012;SDS011;52783;50.502;8.190;2023-04-07T02:41:49;28.17;;;15.32;;
66012;SDS011;52783;50.502;8.190;2023-04-07T02:44:14;23.83;;;15.02;;
66012;SDS011;52783;50.502;8.190;2023-04-07T02:46:40;25.58;;;14.20;;
66012;SDS011;52783;50.502;8.190;2023-04-07T02:49:05;21.52;;;14.32;;
66012;SDS011;52783;50.502;8.190;2023-04-07T02:51:31;25.73;;;15.80;;
66012;SDS011;52783;50.502;8.190;2023-04-07T02:53:56;26.98;;;15.02;;
66012;SDS011;52783;50.502;8.190;2023-04-07T02:56:22;25.33;;;15.65;;
66012;SDS011;52783;50.502;8.190;2023-04-07T02:58:47;24.85;;;15.18;;
66012;SDS011;52783;50.502;8.190;2023-04-07T03:01:13;25.35;;;16.10;;
66012;SDS011;52783;50.502;8.190;2023-04-07T03:03:38;29.65;;;16.20;;
66012;SDS011;52783;50.502;8.190;2023-04-07T03:06:06;27.33;;;15.75;;
66012;SDS011;52783;50.502;8.190;2023-04-07T03:08:31;27.25;;;16.45;;
66012;SDS011;52783;50.502;8.190;2023-04-07T03:10:57;27.90;;;16.23;;
66012;SDS011;52783;50.502;8.190;2023-04-07T03:13:23;33.67;;;17.55;;
66012;SDS011;52783;50.502;8.190;2023-04-07T03:15:48;31.98;;;16.20;;
66012;SDS011;52783;50.502;8.190;2023-04-07T03:18:14;27.65;;;16.38;;
66012;SDS011;52783;50.502;8.190;2023-04-07T03:20:39;26.83;;;16.98;;
66012;SDS011;52783;50.502;8.190;2023-04-07T03:23:06;27.08;;;15.80;;
66012;SDS011;52783;50.502;8.190;2023-04-07T03:25:32;25.83;;;15.90;;
66012;SDS011;52783;50.502;8.190;2023-04-07T03:27:57;27.65;;;16.25;;
66012;SDS011;52783;50.502;8.190;2023-04-07T03:30:23;28.92;;;15.90;;
66012;SDS011;52783;50.502;8.190;2023-04-07T03:32:49;23.67;;;15.32;;
66012;SDS011;52783;50.502;8.190;2023-04-07T03:35:15;26.00;;;15.20;;
66012;SDS011;52783;50.502;8.190;2023-04-07T03:37:40;29.50;;;14.63;;
66012;SDS011;52783;50.502;8.190;2023-04-07T03:40:06;26.70;;;16.13;;
66012;SDS011;52783;50.502;8.190;2023-04-07T03:42:32;23.52;;;15.05;;
66012;SDS011;52783;50.502;8.190;2023-04-07T03:44:57;23.58;;;14.45;;
66012;SDS011;52783;50.502;8.190;2023-04-07T03:47:23;25.27;;;13.88;;
66012;SDS011;52783;50.502;8.190;2023-04-07T03:49:49;27.00;;;14.32;;
66012;SDS011;52783;50.502;8.190;2023-04-07T03:52:14;24.92;;;13.98;;
66012;SDS011;52783;50.502;8.190;2023-04-07T03:54:40;23.33;;;14.13;;
66012;SDS011;52783;50.502;8.190;2023-04-07T03:57:05;22.50;;;14.20;;
66012;SDS011;52783;50.502;8.190;2023-04-07T03:59:31;21.58;;;13.80;;
66012;SDS011;52783;50.502;8.190;2023-04-07T04:01:56;22.42;;;13.60;;
66012;SDS011;52783;50.502;8.190;2023-04-07T04:04:22;28.10;;;13.63;;
66012;SDS011;52783;50.502;8.190;2023-04-07T04:06:48;24.35;;;13.70;;
66012;SDS011;52783;50.502;8.190;2023-04-07T04:09:14;25.08;;;13.35;;
66012;SDS011;52783;50.502;8.190;2023-04-07T04:11:40;21.10;;;13.50;;
66012;SDS011;52783;50.502;8.190;2023-04-07T04:14:06;20.75;;;12.80;;
66012;SDS011;52783;50.502;8.190;2023-04-07T04:16:31;29.20;;;13.52;;
66012;SDS011;52783;50.502;8.190;2023-04-07T04:18:59;21.35;;;13.02;;
66012;SDS011;52783;50.502;8.190;2023-04-07T04:21:25;20.55;;;12.93;;
66012;SDS011;52783;50.502;8.190;2023-04-07T04:23:51;22.33;;;12.95;;
66012;SDS011;52783;50.502;8.190;2023-04-07T04:26:17;19.00;;;12.23;;
66012;SDS011;52783;50.502;8.190;2023-04-07T04:28:42;23.25;;;12.27;;
66012;SDS011;52783;50.502;8.190;2023-04-07T04:31:08;19.23;;;12.25;;
66012;SDS011;52783;50.502;8.190;2023-04-07T04:33:33;22.63;;;11.63;;
66012;SDS011;52783;50.502;8.190;2023-04-07T04:35:59;22.10;;;12.63;;
66012;SDS011;52783;50.502;8.190;2023-04-07T04:38:25;21.67;;;12.75;;
66012;SDS011;52783;50.502;8.190;2023-04-07T04:40:50;20.85;;;12.73;;
66012;SDS011;52783;50.502;8.190;2023-04-07T04:43:16;20.40;;;12.20;;
66012;SDS011;52783;50.502;8.190;2023-04-07T04:45:41;18.80;;;11.45;;
66012;SDS011;52783;50.502;8.190;2023-04-07T04:48:07;18.45;;;11.10;;
66012;SDS011;52783;50.502;8.190;2023-04-07T04:50:33;16.98;;;10.95;;
66012;SDS011;52783;50.502;8.190;2023-04-07T04:52:58;16.08;;;10.45;;
66012;SDS011;52783;50.502;8.190;2023-04-07T04:55:24;16.77;;;10.70;;
66012;SDS011;52783;50.502;8.190;2023-04-07T04:57:49;18.63;;;11.63;;
66012;SDS011;52783;50.502;8.190;2023-04-07T05:00:15;19.90;;;11.77;;
66012;SDS011;52783;50.502;8.190;2023-04-07T05:02:41;18.95;;;11.63;;
66012;SDS011;52783;50.502;8.190;2023-04-07T05:05:07;18.85;;;11.43;;
66012;SDS011;52783;50.502;8.190;2023-04-07T05:07:32;17.88;;;10.85;;
66012;SDS011;52783;50.502;8.190;2023-04-07T05:09:58;20.48;;;11.55;;
66012;SDS011;52783;50.502;8.190;2023-04-07T05:12:24;19.85;;;11.57;;
66012;SDS011;52783;50.502;8.190;2023-04-07T05:14:49;20.00;;;11.10;;
66012;SDS011;52783;50.502;8.190;2023-04-07T05:17:15;19.77;;;11.65;;
66012;SDS011;52783;50.502;8.190;2023-04-07T05:19:40;21.70;;;11.40;;
66012;SDS011;52783;50.502;8.190;2023-04-07T05:22:06;19.35;;;11.48;;
66012;SDS011;52783;50.502;8.190;2023-04-07T05:24:32;19.42;;;11.45;;
66012;SDS011;52783;50.502;8.190;2023-04-07T05:26:57;19.75;;;10.55;;
66012;SDS011;52783;50.502;8.190;2023-04-07T05:29:23;21.42;;;11.55;;
66012;SDS011;52783;50.502;8.190;2023-04-07T05:31:48;18.27;;;10.70;;
66012;SDS011;52783;50.502;8.190;2023-04-07T05:34:14;20.17;;;12.45;;
66012;SDS011;52783;50.502;8.190;2023-04-07T05:36:39;18.23;;;11.77;;
66012;SDS011;52783;50.502;8.190;2023-04-07T05:39:05;18.98;;;10.70;;
66012;SDS011;52783;50.502;8.190;2023-04-07T05:41:31;18.80;;;10.13;;
66012;SDS011;52783;50.502;8.190;2023-04-07T05:43:56;20.10;;;11.55;;
66012;SDS011;52783;50.502;8.190;2023-04-07T05:46:22;19.77;;;10.82;;
66012;SDS011;52783;50.502;8.190;2023-04-07T05:48:47;17.40;;;10.10;;
66012;SDS011;52783;50.502;8.190;2023-04-07T05:51:13;17.83;;;10.32;;
66012;SDS011;52783;50.502;8.190;2023-04-07T05:53:39;20.33;;;10.77;;
66012;SDS011;52783;50.502;8.190;2023-04-07T05:56:04;18.08;;;11.20;;
66012;SDS011;52783;50.502;8.190;2023-04-07T05:58:30;17.42;;;10.85;;
66012;SDS011;52783;50.502;8.190;2023-04-07T06:00:56;19.88;;;11.48;;
66012;SDS011;52783;50.502;8.190;2023-04-07T06:03:22;18.20;;;10.95;;
66012;SDS011;52783;50.502;8.190;2023-04-07T06:05:47;19.73;;;10.63;;
66012;SDS011;52783;50.502;8.190;2023-04-07T06:08:13;17.15;;;9.95;;
66012;SDS011;52783;50.502;8.190;2023-04-07T06:10:38;16.55;;;10.43;;
66012;SDS011;52783;50.502;8.190;2023-04-07T06:13:05;17.27;;;10.30;;
66012;SDS011;52783;50.502;8.190;2023-04-07T06:15:31;17.67;;;10.32;;
66012;SDS011;52783;50.502;8.190;2023-04-07T06:17:57;16.20;;;9.77;;
66012;SDS011;52783;50.502;8.190;2023-04-07T06:20:23;16.60;;;10.45;;
66012;SDS011;52783;50.502;8.190;2023-04-07T06:22:48;19.17;;;10.88;;
66012;SDS011;52783;50.502;8.190;2023-04-07T06:25:14;16.05;;;9.98;;
66012;SDS011;52783;50.502;8.190;2023-04-07T06:27:39;18.60;;;10.07;;
66012;SDS011;52783;50.502;8.190;2023-04-07T06:30:05;15.38;;;9.95;;
66012;SDS011;52783;50.502;8.190;2023-04-07T06:32:31;14.18;;;8.98;;
66012;SDS011;52783;50.502;8.190;2023-04-07T06:34:57;14.63;;;9.23;;
66012;SDS011;52783;50.502;8.190;2023-04-07T06:37:23;15.82;;;9.68;;
66012;SDS011;52783;50.502;8.190;2023-04-07T06:39:49;17.92;;;10.45;;
66012;SDS011;52783;50.502;8.190;2023-04-07T06:42:15;19.90;;;10.43;;
66012;SDS011;52783;50.502;8.190;2023-04-07T06:44:41;15.65;;;9.27;;
66012;SDS011;52783;50.502;8.190;2023-04-07T06:47:06;17.10;;;9.95;;
66012;SDS011;52783;50.502;8.190;2023-04-07T06:49:33;14.73;;;9.55;;
66012;SDS011;52783;50.502;8.190;2023-04-07T06:51:59;14.85;;;9.52;;
66012;SDS011;52783;50.502;8.190;2023-04-07T06:54:24;14.85;;;9.93;;
66012;SDS011;52783;50.502;8.190;2023-04-07T06:56:50;18.23;;;10.27;;
66012;SDS011;52783;50.502;8.190;2023-04-07T06:59:15;18.55;;;10.82;;
66012;SDS011;52783;50.502;8.190;2023-04-07T07:01:41;18.95;;;10.88;;
66012;SDS011;52783;50.502;8.190;2023-04-07T07:04:07;19.00;;;11.20;;
66012;SDS011;52783;50.502;8.190;2023-04-07T07:09:03;18.25;;;11.40;;
66012;SDS011;52783;50.502;8.190;2023-04-07T07:11:28;15.18;;;10.00;;
66012;SDS011;52783;50.502;8.190;2023-04-07T07:13:54;21.30;;;11.60;;
66012;SDS011;52783;50.502;8.190;2023-04-07T07:16:20;15.75;;;10.82;;
66012;SDS011;52783;50.502;8.190;2023-04-07T07:18:48;16.10;;;10.18;;
66012;SDS011;52783;50.502;8.190;2023-04-07T07:21:13;19.70;;;10.15;;
66012;SDS011;52783;50.502;8.190;2023-04-07T07:23:39;18.75;;;10.90;;
66012;SDS011;52783;50.502;8.190;2023-04-07T07:26:04;18.67;;;10.70;;
66012;SDS011;52783;50.502;8.190;2023-04-07T07:28:30;16.50;;;10.57;;
66012;SDS011;52783;50.502;8.190;2023-04-07T07:30:55;19.35;;;11.63;;
66012;SDS011;52783;50.502;8.190;2023-04-07T07:33:21;16.17;;;8.90;;
66012;SDS011;52783;50.502;8.190;2023-04-07T07:35:47;15.73;;;9.13;;
66012;SDS011;52783;50.502;8.190;2023-04-07T07:38:12;14.55;;;8.80;;
66012;SDS011;52783;50.502;8.190;2023-04-07T07:40:38;14.63;;;9.13;;
66012;SDS011;52783;50.502;8.190;2023-04-07T07:43:03;16.05;;;9.77;;
66012;SDS011;52783;50.502;8.190;2023-04-07T07:45:30;16.95;;;9.05;;
66012;SDS011;52783;50.502;8.190;2023-04-07T07:47:55;25.35;;;12.98;;
66012;SDS011;52783;50.502;8.190;2023-04-07T07:50:21;13.63;;;9.25;;
66012;SDS011;52783;50.502;8.190;2023-04-07T07:52:46;13.38;;;8.35;;
66012;SDS011;52783;50.502;8.190;2023-04-07T07:55:12;18.83;;;8.55;;
66012;SDS011;52783;50.502;8.190;2023-04-07T07:57:38;14.20;;;9.20;;
66012;SDS011;52783;50.502;8.190;2023-04-07T08:00:03;28.17;;;12.85;;
66012;SDS011;52783;50.502;8.190;2023-04-07T08:02:29;16.55;;;8.27;;
66012;SDS011;52783;50.502;8.190;2023-04-07T08:04:56;18.48;;;9.82;;
66012;SDS011;52783;50.502;8.190;2023-04-07T08:07:22;15.85;;;8.88;;
66012;SDS011;52783;50.502;8.190;2023-04-07T08:09:48;12.73;;;8.63;;
66012;SDS011;52783;50.502;8.190;2023-04-07T08:12:14;11.25;;;7.47;;
66012;SDS011;52783;50.502;8.190;2023-04-07T08:14:39;12.52;;;8.13;;
66012;SDS011;52783;50.502;8.190;2023-04-07T08:17:05;15.32;;;9.05;;
66012;SDS011;52783;50.502;8.190;2023-04-07T08:19:31;16.23;;;9.05;;
66012;SDS011;52783;50.502;8.190;2023-04-07T08:21:56;14.80;;;9.80;;
66012;SDS011;52783;50.502;8.190;2023-04-07T08:24:22;11.65;;;8.10;;
66012;SDS011;52783;50.502;8.190;2023-04-07T08:26:47;10.88;;;6.60;;
66012;SDS011;52783;50.502;8.190;2023-04-07T08:29:13;9.05;;;6.03;;
66012;SDS011;52783;50.502;8.190;2023-04-07T08:31:39;9.13;;;5.88;;
66012;SDS011;52783;50.502;8.190;2023-04-07T08:34:05;9.30;;;5.88;;
66012;SDS011;52783;50.502;8.190;2023-04-07T08:36:30;7.68;;;4.88;;
66012;SDS011;52783;50.502;8.190;2023-04-07T08:38:56;8.18;;;5.10;;
66012;SDS011;52783;50.502;8.190;2023-04-07T08:41:26;6.55;;;4.75;;
66012;SDS011;52783;50.502;8.190;2023-04-07T08:43:56;7.40;;;5.10;;
66012;SDS011;52783;50.502;8.190;2023-04-07T08:46:22;6.32;;;4.82;;
66012;SDS011;52783;50.502;8.190;2023-04-07T08:48:50;7.85;;;5.10;;
66012;SDS011;52783;50.502;8.190;2023-04-07T08:51:16;6.20;;;4.40;;
66012;SDS011;52783;50.502;8.190;2023-04-07T08:53:54;4.80;;;3.70;;
66012;SDS011;52783;50.502;8.190;2023-04-07T08:56:27;4.63;;;3.63;;
66012;SDS011;52783;50.502;8.190;2023-04-07T08:58:53;4.10;;;3.53;;
66012;SDS011;52783;50.502;8.190;2023-04-07T09:01:19;4.30;;;3.17;;
66012;SDS011;52783;50.502;8.190;2023-04-07T09:03:45;6.65;;;4.75;;
66012;SDS011;52783;50.502;8.190;2023-04-07T09:06:12;7.82;;;4.75;;
66012;SDS011;52783;50.502;8.190;2023-04-07T09:08:38;5.47;;;3.80;;
66012;SDS011;52783;50.502;8.190;2023-04-07T09:11:04;3.33;;;3.03;;
66012;SDS011;52783;50.502;8.190;2023-04-07T09:13:30;3.60;;;3.05;;
66012;SDS011;52783;50.502;8.190;2023-04-07T09:15:56;7.07;;;3.00;;
66012;SDS011;52783;50.502;8.190;2023-04-07T09:18:23;3.38;;;3.08;;
66012;SDS011;52783;50.502;8.190;2023-04-07T09:20:59;32.63;;;7.78;;
66012;SDS011;52783;50.502;8.190;2023-04-07T09:23:59;12.90;;;4.72;;
66012;SDS011;52783;50.502;8.190;2023-04-07T09:28:46;3.00;;;2.53;;
66012;SDS011;52783;50.502;8.190;2023-04-07T09:31:22;3.50;;;2.90;;
66012;SDS011;52783;50.502;8.190;2023-04-07T09:34:09;2.78;;;2.50;;
66012;SDS011;52783;50.502;8.190;2023-04-07T09:36:48;2.75;;;2.55;;
66012;SDS011;52783;50.502;8.190;2023-04-07T09:39:14;2.83;;;2.40;;
66012;SDS011;52783;50.502;8.190;2023-04-07T09:41:39;2.60;;;2.30;;
66012;SDS011;52783;50.502;8.190;2023-04-07T09:44:05;3.28;;;2.65;;
66012;SDS011;52783;50.502;8.190;2023-04-07T09:46:31;4.00;;;3.05;;
66012;SDS011;52783;50.502;8.190;2023-04-07T09:49:03;2.72;;;2.20;;
66012;SDS011;52783;50.502;8.190;2023-04-07T09:51:32;2.20;;;2.10;;
66012;SDS011;52783;50.502;8.190;2023-04-07T09:54:00;3.17;;;2.10;;
66012;SDS011;52783;50.502;8.190;2023-04-07T09:56:25;2.45;;;2.25;;
66012;SDS011;52783;50.502;8.190;2023-04-07T09:58:52;2.95;;;2.30;;
66012;SDS011;52783;50.502;8.190;2023-04-07T10:01:20;2.30;;;2.17;;
66012;SDS011;52783;50.502;8.190;2023-04-07T10:03:46;1.85;;;1.75;;
66012;SDS011;52783;50.502;8.190;2023-04-07T10:06:12;1.88;;;1.77;;
66012;SDS011;52783;50.502;8.190;2023-04-07T10:08:39;1.90;;;1.80;;
66012;SDS011;52783;50.502;8.190;2023-04-07T10:11:07;2.22;;;2.05;;
66012;SDS011;52783;50.502;8.190;2023-04-07T10:13:34;1.98;;;1.88;;
66012;SDS011;52783;50.502;8.190;2023-04-07T10:16:02;2.83;;;2.30;;
66012;SDS011;52783;50.502;8.190;2023-04-07T10:18:30;3.03;;;2.50;;
66012;SDS011;52783;50.502;8.190;2023-04-07T10:20:57;2.40;;;2.20;;
66012;SDS011;52783;50.502;8.190;2023-04-07T10:26:18;2.38;;;2.17;;
66012;SDS011;52783;50.502;8.190;2023-04-07T10:28:50;2.43;;;2.20;;
66012;SDS011;52783;50.502;8.190;2023-04-07T10:31:19;2.60;;;2.20;;
66012;SDS011;52783;50.502;8.190;2023-04-07T10:33:47;2.20;;;2.00;;
66012;SDS011;52783;50.502;8.190;2023-04-07T10:36:17;2.30;;;2.10;;
66012;SDS011;52783;50.502;8.190;2023-04-07T10:39:17;2.30;;;2.20;;
66012;SDS011;52783;50.502;8.190;2023-04-07T10:41:39;4.50;;;2.20;;
66012;SDS011;52783;50.502;8.190;2023-04-07T10:44:06;3.17;;;2.88;;
66012;SDS011;52783;50.502;8.190;2023-04-07T10:49:11;3.50;;;2.67;;
66012;SDS011;52783;50.502;8.190;2023-04-07T10:51:37;3.58;;;2.90;;
66012;SDS011;52783;50.502;8.190;2023-04-07T10:54:16;2.95;;;2.65;;
66012;SDS011;52783;50.502;8.190;2023-04-07T10:59:32;2.80;;;2.60;;
66012;SDS011;52783;50.502;8.190;2023-04-07T11:04:40;2.38;;;2.20;;
66012;SDS011;52783;50.502;8.190;2023-04-07T11:07:07;2.97;;;2.67;;
66012;SDS011;52783;50.502;8.190;2023-04-07T11:09:33;3.00;;;2.70;;
66012;SDS011;52783;50.502;8.190;2023-04-07T11:11:59;4.55;;;2.75;;
66012;SDS011;52783;50.502;8.190;2023-04-07T11:14:25;2.80;;;2.50;;
66012;SDS011;52783;50.502;8.190;2023-04-07T11:16:54;3.78;;;2.47;;
66012;SDS011;52783;50.502;8.190;2023-04-07T11:19:20;2.33;;;2.13;;
66012;SDS011;52783;50.502;8.190;2023-04-07T11:21:46;4.70;;;2.58;;
66012;SDS011;52783;50.502;8.190;2023-04-07T11:27:16;2.20;;;2.00;;
66012;SDS011;52783;50.502;8.190;2023-04-07T11:29:42;2.72;;;2.33;;
66012;SDS011;52783;50.502;8.190;2023-04-07T11:32:08;2.50;;;2.30;;
66012;SDS011;52783;50.502;8.190;2023-04-07T11:34:35;3.28;;;2.67;;
66012;SDS011;52783;50.502;8.190;2023-04-07T11:39:58;2.30;;;2.10;;
66012;SDS011;52783;50.502;8.190;2023-04-07T11:42:33;2.88;;;2.55;;
66012;SDS011;52783;50.502;8.190;2023-04-07T11:45:00;2.70;;;2.50;;
66012;SDS011;52783;50.502;8.190;2023-04-07T11:47:38;3.30;;;2.17;;
66012;SDS011;52783;50.502;8.190;2023-04-07T11:50:05;3.55;;;2.30;;
66012;SDS011;52783;50.502;8.190;2023-04-07T11:52:41;2.55;;;2.00;;
66012;SDS011;52783;50.502;8.190;2023-04-07T11:55:28;2.90;;;2.60;;
66012;SDS011;52783;50.502;8.190;2023-04-07T11:57:53;2.50;;;2.20;;
66012;SDS011;52783;50.502;8.190;2023-04-07T12:00:19;2.85;;;1.90;;
66012;SDS011;52783;50.502;8.190;2023-04-07T12:02:45;3.20;;;1.90;;
66012;SDS011;52783;50.502;8.190;2023-04-07T12:05:11;2.40;;;2.20;;
66012;SDS011;52783;50.502;8.190;2023-04-07T12:07:37;1.80;;;1.70;;
66012;SDS011;52783;50.502;8.190;2023-04-07T12:10:19;2.00;;;1.90;;
66012;SDS011;52783;50.502;8.190;2023-04-07T12:12:45;2.13;;;2.03;;
66012;SDS011;52783;50.502;8.190;2023-04-07T12:15:11;2.15;;;2.00;;
66012;SDS011;52783;50.502;8.190;2023-04-07T12:17:37;2.08;;;1.88;;
66012;SDS011;52783;50.502;8.190;2023-04-07T12:20:08;2.40;;;2.20;;
66012;SDS011;52783;50.502;8.190;2023-04-07T12:22:34;2.10;;;2.00;;
66012;SDS011;52783;50.502;8.190;2023-04-07T12:24:59;2.65;;;1.90;;
66012;SDS011;52783;50.502;8.190;2023-04-07T12:27:25;1.92;;;1.70;;
66012;SDS011;52783;50.502;8.190;2023-04-07T12:29:51;2.85;;;1.60;;
66012;SDS011;52783;50.502;8.190;2023-04-07T12:32:17;1.70;;;1.60;;
66012;SDS011;52783;50.502;8.190;2023-04-07T12:34:43;4.28;;;3.08;;
66012;SDS011;52783;50.502;8.190;2023-04-07T12:37:08;3.40;;;2.38;;
66012;SDS011;52783;50.502;8.190;2023-04-07T12:39:34;2.25;;;1.48;;
66012;SDS011;52783;50.502;8.190;2023-04-07T12:41:59;1.33;;;1.30;;
66012;SDS011;52783;50.502;8.190;2023-04-07T12:44:25;2.05;;;1.95;;
66012;SDS011;52783;50.502;8.190;2023-04-07T12:46:50;2.63;;;1.67;;
66012;SDS011;52783;50.502;8.190;2023-04-07T12:49:16;1.13;;;1.10;;
66012;SDS011;52783;50.502;8.190;2023-04-07T12:51:41;1.45;;;1.25;;
66012;SDS011;52783;50.502;8.190;2023-04-07T12:54:07;3.65;;;1.63;;
66012;SDS011;52783;50.502;8.190;2023-04-07T12:56:32;1.88;;;1.67;;
66012;SDS011;52783;50.502;8.190;2023-04-07T12:58:58;1.70;;;1.60;;
66012;SDS011;52783;50.502;8.190;2023-04-07T13:01:23;1.02;;;1.02;;
66012;SDS011;52783;50.502;8.190;2023-04-07T13:03:49;1.48;;;1.38;;
66012;SDS011;52783;50.502;8.190;2023-04-07T13:06:15;1.30;;;1.20;;
66012;SDS011;52783;50.502;8.190;2023-04-07T13:08:41;1.08;;;1.08;;
66012;SDS011;52783;50.502;8.190;2023-04-07T13:11:06;3.17;;;1.42;;
66012;SDS011;52783;50.502;8.190;2023-04-07T13:13:32;1.75;;;1.65;;
66012;SDS011;52783;50.502;8.190;2023-04-07T13:15:58;4.85;;;2.65;;
66012;SDS011;52783;50.502;8.190;2023-04-07T13:18:23;1.50;;;1.40;;
66012;SDS011;52783;50.502;8.190;2023-04-07T13:20:49;2.13;;;1.27;;
66012;SDS011;52783;50.502;8.190;2023-04-07T13:23:15;1.60;;;1.50;;
66012;SDS011;52783;50.502;8.190;2023-04-07T13:25:40;1.65;;;1.55;;
66012;SDS011;52783;50.502;8.190;2023-04-07T13:28:06;1.70;;;1.60;;
66012;SDS011;52783;50.502;8.190;2023-04-07T13:30:32;1.38;;;1.25;;
66012;SDS011;52783;50.502;8.190;2023-04-07T13:32:57;1.70;;;1.60;;
66012;SDS011;52783;50.502;8.190;2023-04-07T13:35:23;1.60;;;1.50;;
66012;SDS011;52783;50.502;8.190;2023-04-07T13:37:49;1.50;;;1.40;;
66012;SDS011;52783;50.502;8.190;2023-04-07T13:40:15;1.27;;;1.25;;
66012;SDS011;52783;50.502;8.190;2023-04-07T13:42:41;2.10;;;1.90;;
66012;SDS011;52783;50.502;8.190;2023-04-07T13:45:07;1.58;;;1.48;;
66012;SDS011;52783;50.502;8.190;2023-04-07T13:47:33;1.50;;;1.40;;
66012;SDS011;52783;50.502;8.190;2023-04-07T13:49:59;1.67;;;1.58;;
66012;SDS011;52783;50.502;8.190;2023-04-07T13:52:25;1.27;;;1.27;;
66012;SDS011;52783;50.502;8.190;2023-04-07T13:54:51;1.65;;;1.55;;
66012;SDS011;52783;50.502;8.190;2023-04-07T13:57:17;1.85;;;1.75;;
66012;SDS011;52783;50.502;8.190;2023-04-07T13:59:45;1.77;;;1.65;;
66012;SDS011;52783;50.502;8.190;2023-04-07T14:02:11;1.60;;;1.50;;
66012;SDS011;52783;50.502;8.190;2023-04-07T14:04:38;1.33;;;1.30;;
66012;SDS011;52783;50.502;8.190;2023-04-07T14:07:03;1.10;;;1.10;;
66012;SDS011;52783;50.502;8.190;2023-04-07T14:09:29;2.97;;;1.58;;
66012;SDS011;52783;50.502;8.190;2023-04-07T14:11:54;1.30;;;1.30;;
66012;SDS011;52783;50.502;8.190;2023-04-07T14:14:21;2.08;;;1.08;;
66012;SDS011;52783;50.502;8.190;2023-04-07T14:16:46;2.13;;;1.25;;
66012;SDS011;52783;50.502;8.190;2023-04-07T14:19:15;1.23;;;1.23;;
66012;SDS011;52783;50.502;8.190;2023-04-07T14:21:41;1.30;;;1.20;;
66012;SDS011;52783;50.502;8.190;2023-04-07T14:24:06;1.25;;;1.23;;
66012;SDS011;52783;50.502;8.190;2023-04-07T14:26:32;1.15;;;1.15;;
66012;SDS011;52783;50.502;8.190;2023-04-07T14:28:57;1.20;;;1.20;;
66012;SDS011;52783;50.502;8.190;2023-04-07T14:31:23;1.50;;;1.40;;
66012;SDS011;52783;50.502;8.190;2023-04-07T14:33:48;1.70;;;1.60;;
66012;SDS011;52783;50.502;8.190;2023-04-07T14:36:14;1.50;;;1.40;;
66012;SDS011;52783;50.502;8.190;2023-04-07T14:38:41;0.95;;;0.90;;
66012;SDS011;52783;50.502;8.190;2023-04-07T14:41:08;1.15;;;1.15;;
66012;SDS011;52783;50.502;8.190;2023-04-07T14:43:34;1.17;;;1.13;;
66012;SDS011;52783;50.502;8.190;2023-04-07T14:46:00;6.38;;;1.27;;
66012;SDS011;52783;50.502;8.190;2023-04-07T14:48:26;1.40;;;1.30;;
66012;SDS011;52783;50.502;8.190;2023-04-07T14:50:52;1.33;;;0.95;;
66012;SDS011;52783;50.502;8.190;2023-04-07T14:53:17;0.82;;;0.82;;
66012;SDS011;52783;50.502;8.190;2023-04-07T14:55:43;0.88;;;0.88;;
66012;SDS011;52783;50.502;8.190;2023-04-07T14:58:08;0.80;;;0.80;;
66012;SDS011;52783;50.502;8.190;2023-04-07T15:00:34;0.88;;;0.88;;
66012;SDS011;52783;50.502;8.190;2023-04-07T15:02:59;0.70;;;0.70;;
66012;SDS011;52783;50.502;8.190;2023-04-07T15:05:25;0.73;;;0.73;;